Barnett, Illinois
Current Conditions -  °F | °C
As of 6:55 PM on Wednesday 22 Oct 2014 (Local Time) from K3LF Reporting Station
Clear Clear  
Wind Chill: 51°   Ceiling: Unl
Heat Index: 51°   Visibility: 10mi
Dew Point: 37°   Wind: 5mph
Humidity: 57%   Direction: 120°ESE
Pressure: 30.22"   Gusts: NA
Location:  39.1865°N, 89.679°W
Report Text: K3LF 222355Z AUTO 12004KT 10SM CLR 11/03 A3022 RMK AO2 T01070026 10166 20106
Loading
Personal Weather Stations






























Interactive Weather Map
Tropical Storm Tracking
New forecast layout! Learn more

10-Day Weather Forecast

Advertisements
Track Severe Weather on mobile